Saint-Hyacinthe, Canada
Current Conditions -  °F | °C
As of 9:11 PM on Thursday 18 Dec 2014 (Local Time) from CYHU Reporting Station
Light Snow Light Snow  
Wind Chill: 21°   Ceiling: 2100
Heat Index: 30°   Visibility: 9mi
Dew Point: 25°   Wind: 10mph
Humidity: 80%   Direction: 300°WNW
Pressure: 29.93"   Gusts: NA
Location:  45.62°N, 72.95°W
Report Text: CYHU 190211Z AUTO 30009KT 9SM -SN OVC021 M01/M04 A2993 RMK SLP137
Loading
Personal Weather Stations






























Interactive Weather Map New forecast layout! Learn more

10-Day Weather Forecast

Advertisements
Track Severe Weather on mobile